Time;durP1;ratioP1;P1;durP2;ratioP2;P2;SDS_P1;SDS_P2;PMS_P1;PMS_P2;Temp;Humidity;BMP_temperature;BMP_pressure;BME280_temperature;BME280_humidity;BME280_pressure;Samples;Min_cycle;Max_cycle;Signal;HPM_P1;HPM_P2
2022/05/17 00:01:04;;;;;;;3.13;1.17;;;20.40;60.40;;;;;;5093773;28;20123;-71
2022/05/17 00:03:30;;;;;;;2.63;1.23;;;20.30;60.40;;;;;;5093985;28;20040;-73
2022/05/17 00:05:56;;;;;;;3.70;1.35;;;20.40;60.40;;;;;;5092513;28;20032;-73
2022/05/17 00:08:22;;;;;;;1.95;1.33;;;20.40;60.30;;;;;;5092617;28;20043;-74
2022/05/17 00:10:48;;;;;;;4.00;1.00;;;20.30;60.30;;;;;;5092649;28;20058;-74
2022/05/17 00:13:14;;;;;;;2.17;1.25;;;20.30;60.40;;;;;;5092122;28;20561;-74
2022/05/17 00:15:44;;;;;;;3.17;1.05;;;20.30;61.10;;;;;;5093542;28;20031;-74
2022/05/17 00:18:14;;;;;;;1.35;1.08;;;20.30;60.40;;;;;;5092314;28;20040;-73
2022/05/17 00:20:41;;;;;;;2.38;1.33;;;20.30;60.40;;;;;;5093434;28;20044;-74
2022/05/17 00:23:09;;;;;;;5.20;1.60;;;20.30;60.40;;;;;;5092483;28;20043;-74
2022/05/17 00:25:35;;;;;;;1.73;0.90;;;20.30;60.40;;;;;;5092353;28;20052;-74
2022/05/17 00:28:01;;;;;;;2.05;1.15;;;20.20;60.40;;;;;;5093287;28;20066;-74
2022/05/17 00:30:27;;;;;;;1.55;1.10;;;20.30;60.40;;;;;;5093120;28;20475;-73
2022/05/17 00:32:53;;;;;;;1.95;0.93;;;20.20;60.40;;;;;;5091971;28;20415;-73
2022/05/17 00:35:18;;;;;;;2.13;1.20;;;20.20;60.30;;;;;;5091938;28;20391;-66
2022/05/17 00:37:44;;;;;;;1.77;0.88;;;20.20;60.30;;;;;;5091618;28;20078;-73
2022/05/17 00:40:11;;;;;;;2.22;1.08;;;20.20;60.40;;;;;;5093115;28;20123;-73
2022/05/17 00:42:37;;;;;;;1.85;0.90;;;20.20;60.40;;;;;;5091973;28;20093;-73
2022/05/17 00:45:04;;;;;;;3.28;1.33;;;20.10;60.30;;;;;;5092897;28;20449;-74
2022/05/17 00:56:00;;;;;;;1.70;1.00;;;20.10;60.30;;;;;;5130271;27;20104;-74
2022/05/17 01:01:17;;;;;;;1.95;1.08;;;20.00;60.40;;;;;;5089390;28;20888;-73
2022/05/17 01:06:35;;;;;;;2.55;0.80;;;20.00;60.30;;;;;;5130293;27;20586;-73
2022/05/17 01:09:01;;;;;;;2.75;1.00;;;20.00;60.40;;;;;;5129222;28;20057;-73
2022/05/17 01:11:27;;;;;;;3.38;1.00;;;20.00;60.30;;;;;;5128915;28;20120;-73
2022/05/17 01:16:38;;;;;;;1.58;0.70;;;20.00;60.40;;;;;;5128785;28;20047;-72
2022/05/17 01:19:08;;;;;;;2.30;1.30;;;20.00;60.30;;;;;;5128596;27;20043;-73
2022/05/17 01:21:33;;;;;;;1.70;1.20;;;19.90;60.40;;;;;;5129151;28;20391;-72
2022/05/17 01:23:59;;;;;;;3.53;1.38;;;20.00;60.40;;;;;;5129947;28;20027;-72
2022/05/17 01:26:29;;;;;;;2.70;0.95;;;20.00;60.40;;;;;;5128828;28;20542;-74
2022/05/17 01:28:54;;;;;;;1.73;1.00;;;19.90;60.40;;;;;;5129315;28;20038;-74
2022/05/17 01:31:20;;;;;;;2.67;1.23;;;19.90;60.40;;;;;;5129661;28;20422;-73
2022/05/17 01:33:46;;;;;;;1.70;0.90;;;19.90;60.40;;;;;;5128560;28;20169;-74
2022/05/17 01:36:15;;;;;;;2.40;1.13;;;19.90;60.40;;;;;;5129731;28;20114;-74
2022/05/17 01:38:45;;;;;;;2.88;1.25;;;19.90;60.40;;;;;;5128470;28;20035;-77
2022/05/17 01:41:11;;;;;;;;;;;19.90;60.40;;;;;;5129059;27;20038;-73
2022/05/17 01:43:37;;;;;;;1.85;1.10;;;19.90;60.50;;;;;;5145526;27;20313;-73
2022/05/17 01:46:06;;;;;;;2.63;0.95;;;19.90;60.50;;;;;;5128045;28;20089;-73
2022/05/17 01:48:32;;;;;;;1.52;1.05;;;19.90;60.40;;;;;;5128290;28;20097;-73
2022/05/17 01:50:58;;;;;;;2.80;1.25;;;19.90;60.40;;;;;;5128143;28;20039;-73
2022/05/17 01:53:23;;;;;;;1.63;1.00;;;19.90;60.40;;;;;;5128190;28;20045;-71
2022/05/17 01:55:49;;;;;;;3.00;0.95;;;19.90;60.40;;;;;;5129170;28;20054;-73
2022/05/17 01:58:15;;;;;;;1.77;1.00;;;19.90;60.40;;;;;;5128073;28;20050;-68
2022/05/17 02:00:41;;;;;;;3.22;1.67;;;19.90;60.40;;;;;;5145054;27;20043;-73
2022/05/17 02:03:06;;;;;;;2.17;0.93;;;19.80;60.40;;;;;;5128145;28;20039;-71
2022/05/17 02:05:32;;;;;;;2.17;1.48;;;19.80;61.10;;;;;;5127658;28;20047;-73
2022/05/17 02:07:58;;;;;;;2.55;0.73;;;19.80;60.40;;;;;;5127978;27;20043;-73
2022/05/17 02:10:25;;;;;;;3.17;1.00;;;19.80;60.40;;;;;;5128003;28;20048;-73
2022/05/17 02:12:53;;;;;;;3.47;1.40;;;19.80;60.40;;;;;;5145152;27;20047;-72
2022/05/17 02:15:19;;;;;;;1.88;1.00;;;19.80;60.30;;;;;;5128876;28;20160;-73
2022/05/17 02:17:44;;;;;;;2.67;0.98;;;19.80;60.30;;;;;;5131071;27;20122;-74
2022/05/17 02:20:11;;;;;;;2.65;0.85;;;19.80;60.30;;;;;;5115392;28;20094;-72
2022/05/17 02:22:37;;;;;;;1.92;1.10;;;19.80;60.30;;;;;;5131070;27;20071;-74
2022/05/17 02:25:04;;;;;;;3.28;1.33;;;19.80;60.30;;;;;;5113825;28;20203;-73
2022/05/17 02:27:29;;;;;;;2.60;1.00;;;19.80;60.30;;;;;;5113920;28;20043;-73
2022/05/17 02:29:56;;;;;;;2.50;1.10;;;19.70;60.30;;;;;;5115043;28;20038;-66
2022/05/17 02:32:21;;;;;;;2.75;1.13;;;19.70;60.30;;;;;;5113567;28;20035;-73
2022/05/17 02:34:47;;;;;;;2.45;0.75;;;19.70;60.30;;;;;;5115081;28;20040;-73
2022/05/17 02:37:15;;;;;;;2.88;1.08;;;19.70;60.20;;;;;;5114824;28;20555;-73
2022/05/17 02:39:42;;;;;;;2.05;0.93;;;19.70;60.30;;;;;;5130716;27;20035;-73
2022/05/17 02:42:09;;;;;;;2.78;1.27;;;19.70;60.30;;;;;;5114800;28;20042;-71
2022/05/17 02:44:35;;;;;;;3.25;1.48;;;19.80;60.30;;;;;;5114679;28;20301;-72
2022/05/17 02:47:01;;;;;;;3.15;1.13;;;19.70;60.20;;;;;;5113585;28;20032;-68
2022/05/17 02:49:27;;;;;;;2.25;1.00;;;19.70;60.30;;;;;;5130505;27;20115;-74
2022/05/17 02:51:54;;;;;;;2.30;1.05;;;19.70;60.30;;;;;;5114691;28;20131;-72
2022/05/17 02:54:21;;;;;;;5.30;1.33;;;19.70;60.30;;;;;;5113487;28;20040;-66
2022/05/17 02:56:46;;;;;;;2.80;0.90;;;19.70;60.20;;;;;;5113545;28;20039;-73
2022/05/17 02:59:17;;;;;;;2.72;1.48;;;19.70;60.20;;;;;;5114360;28;20390;-73
2022/05/17 03:01:46;;;;;;;1.50;1.00;;;19.70;60.20;;;;;;5113083;28;20078;-74
2022/05/17 03:04:13;;;;;;;2.13;0.80;;;19.70;60.20;;;;;;5113175;28;20043;-73
2022/05/17 03:06:40;;;;;;;1.67;0.98;;;19.60;60.20;;;;;;5112948;28;20483;-73
2022/05/17 03:09:05;;;;;;;2.58;1.42;;;19.60;60.20;;;;;;5113119;28;20048;-73
2022/05/17 03:11:31;;;;;;;3.20;1.27;;;19.60;60.20;;;;;;5113045;27;20092;-73
2022/05/17 03:13:57;;;;;;;2.67;1.30;;;19.60;60.20;;;;;;5114088;28;20070;-73
2022/05/17 03:16:29;;;;;;;2.50;1.30;;;19.60;60.20;;;;;;5114136;28;20451;-73
2022/05/17 03:18:54;;;;;;;2.25;1.13;;;19.60;60.20;;;;;;5112940;28;20040;-73
2022/05/17 03:21:20;;;;;;;2.13;0.90;;;19.60;60.20;;;;;;5112769;28;20200;-72
2022/05/17 03:23:48;;;;;;;3.55;1.40;;;19.60;60.10;;;;;;5112971;28;20050;-72
2022/05/17 03:26:14;;;;;;;2.20;1.10;;;19.60;60.10;;;;;;5112614;28;20043;-67
2022/05/17 03:28:40;;;;;;;2.15;1.00;;;19.60;60.20;;;;;;5111588;28;20039;-74
2022/05/17 03:31:07;;;;;;;2.17;0.82;;;19.60;60.20;;;;;;5112695;28;20042;-75
2022/05/17 03:33:34;;;;;;;1.38;1.00;;;19.60;60.20;;;;;;5112734;28;20040;-73
2022/05/17 03:35:59;;;;;;;2.15;1.13;;;19.50;60.10;;;;;;5113951;28;20437;-73
2022/05/17 03:38:25;;;;;;;3.60;1.40;;;19.50;60.10;;;;;;5129542;27;20047;-74
2022/05/17 03:40:52;;;;;;;1.70;0.90;;;19.50;60.10;;;;;;5129668;27;20093;-74
2022/05/17 03:43:19;;;;;;;2.83;1.65;;;19.50;60.10;;;;;;5112200;28;20119;-73
2022/05/17 03:45:45;;;;;;;3.03;1.30;;;19.50;60.10;;;;;;5112149;28;20055;-72
2022/05/17 03:48:11;;;;;;;3.72;1.15;;;19.50;60.10;;;;;;5113499;28;20498;-72
2022/05/17 03:50:37;;;;;;;2.35;1.13;;;19.50;60.10;;;;;;5129455;27;20036;-74
2022/05/17 03:53:03;;;;;;;2.00;1.08;;;19.50;60.80;;;;;;5113415;28;20110;-72
2022/05/17 03:55:29;;;;;;;2.10;1.27;;;19.50;60.10;;;;;;5129344;27;20046;-72
2022/05/17 03:57:55;;;;;;;1.73;0.95;;;19.50;60.10;;;;;;5112012;28;20054;-73
2022/05/17 04:00:22;;;;;;;1.48;1.00;;;19.50;60.10;;;;;;5112163;28;20134;-73
2022/05/17 04:02:47;;;;;;;3.05;1.60;;;19.50;60.10;;;;;;5113132;28;20090;-73
2022/05/17 04:05:13;;;;;;;2.60;1.10;;;19.50;60.10;;;;;;5112801;28;20047;-75
2022/05/17 04:07:39;;;;;;;1.65;1.02;;;19.50;60.10;;;;;;5128835;27;20196;-72
2022/05/17 04:10:07;;;;;;;2.67;1.13;;;19.50;60.00;;;;;;5113019;28;20173;-73
2022/05/17 04:12:33;;;;;;;3.90;0.85;;;19.50;60.80;;;;;;5111974;28;20040;-74
2022/05/17 04:14:59;;;;;;;2.95;1.30;;;19.50;60.00;;;;;;5111622;28;20043;-74
2022/05/17 04:17:24;;;;;;;3.05;1.40;;;19.50;60.00;;;;;;5112010;28;20051;-66
2022/05/17 04:19:53;;;;;;;1.95;0.82;;;19.50;60.00;;;;;;5113100;28;20066;-73
2022/05/17 04:22:19;;;;;;;2.47;0.95;;;19.50;60.00;;;;;;5111859;28;20032;-73
2022/05/17 04:24:47;;;;;;;1.48;0.95;;;19.50;60.00;;;;;;5111680;28;20403;-73
2022/05/17 04:27:16;;;;;;;3.00;1.02;;;19.50;60.00;;;;;;5111624;28;20039;-72
2022/05/17 04:29:44;;;;;;;3.03;1.10;;;19.50;60.00;;;;;;5111420;28;20031;-66
2022/05/17 04:32:10;;;;;;;3.17;0.80;;;19.50;59.90;;;;;;5112811;28;20046;-73
2022/05/17 04:34:36;;;;;;;2.88;1.30;;;19.50;59.90;;;;;;5129027;27;20035;-68
2022/05/17 04:37:02;;;;;;;2.15;0.90;;;19.50;60.60;;;;;;5111369;28;20047;-73
2022/05/17 04:39:28;;;;;;;2.05;0.90;;;19.50;59.90;;;;;;5111164;28;20050;-72
2022/05/17 04:41:53;;;;;;;1.73;0.98;;;19.50;59.80;;;;;;5112561;28;20039;-66
2022/05/17 04:44:22;;;;;;;1.95;1.30;;;19.50;59.80;;;;;;5111121;28;20483;-73
2022/05/17 04:46:47;;;;;;;3.17;1.13;;;19.50;59.80;;;;;;5111040;28;20089;-73
2022/05/17 04:49:13;;;;;;;3.22;0.98;;;19.50;59.80;;;;;;5111483;28;20040;-70
2022/05/17 04:51:39;;;;;;;1.88;0.95;;;19.50;59.80;;;;;;5112386;28;20574;-73
2022/05/17 04:54:05;;;;;;;1.77;0.75;;;19.50;59.80;;;;;;5111230;28;20066;-72
2022/05/17 04:56:31;;;;;;;3.88;0.90;;;19.50;59.80;;;;;;5112206;28;20043;-68
2022/05/17 04:58:56;;;;;;;2.55;0.63;;;19.50;59.80;;;;;;5111106;28;20502;-72
2022/05/17 05:01:25;;;;;;;2.65;1.20;;;19.50;59.70;;;;;;5112199;28;20044;-66
2022/05/17 05:03:51;;;;;;;2.08;0.70;;;19.40;59.70;;;;;;5111044;28;20038;-70
2022/05/17 05:06:16;;;;;;;2.05;1.13;;;19.50;59.60;;;;;;5128147;27;20118;-73
2022/05/17 05:08:42;;;;;;;4.68;1.00;;;19.50;59.60;;;;;;5111184;28;20101;-73
2022/05/17 05:11:08;;;;;;;2.60;0.88;;;19.50;59.60;;;;;;5111598;28;20062;-66
2022/05/17 05:13:33;;;;;;;2.60;1.00;;;19.50;59.50;;;;;;5128007;27;20372;-74
2022/05/17 05:15:59;;;;;;;5.70;1.42;;;19.50;59.40;;;;;;5128251;28;20070;-73
2022/05/17 05:18:25;;;;;;;4.05;1.33;;;19.60;59.60;;;;;;5111760;28;20200;-74
2022/05/17 05:21:01;;;;;;;2.30;1.08;;;19.60;59.40;;;;;;5107508;28;20050;-73
2022/05/17 05:23:27;;;;;;;1.35;0.73;;;19.60;59.40;;;;;;5090362;28;20087;-72
2022/05/17 05:25:58;;;;;;;2.97;1.40;;;19.60;59.40;;;;;;5105853;28;20075;-73
2022/05/17 05:28:24;;;;;;;2.25;0.98;;;19.60;59.30;;;;;;5090462;28;20387;-73
2022/05/17 05:30:50;;;;;;;2.78;0.80;;;19.60;59.30;;;;;;5090241;28;20047;-69
2022/05/17 05:33:15;;;;;;;3.45;1.05;;;19.60;59.20;;;;;;5100294;28;20036;-67
2022/05/17 05:35:41;;;;;;;2.13;0.73;;;19.70;59.20;;;;;;5110893;28;20449;-70
2022/05/17 05:38:09;;;;;;;2.50;0.50;;;19.70;59.20;;;;;;5110808;28;20041;-73
2022/05/17 05:40:35;;;;;;;2.88;0.50;;;19.70;59.40;;;;;;5107629;28;20048;-76
2022/05/17 05:43:04;;;;;;;3.67;0.70;;;19.70;59.40;;;;;;5104684;28;20045;-73
2022/05/17 05:45:31;;;;;;;3.28;0.75;;;19.70;59.40;;;;;;5090801;28;20662;-75
2022/05/17 05:47:57;;;;;;;1.65;0.35;;;19.80;59.50;;;;;;5116238;28;20040;-75
2022/05/17 05:50:24;;;;;;;4.45;0.93;;;19.80;59.40;;;;;;5112230;27;20039;-75
2022/05/17 05:52:49;;;;;;;2.13;0.60;;;19.80;59.40;;;;;;5115585;27;20035;-76
2022/05/17 05:55:20;;;;;;;4.40;0.70;;;19.90;59.60;;;;;;5096360;28;20104;-72
2022/05/17 05:57:47;;;;;;;4.90;0.80;;;19.90;59.60;;;;;;5109359;27;20515;-74
2022/05/17 06:00:14;;;;;;;3.28;0.98;;;19.90;59.70;;;;;;5101025;28;20047;-75
2022/05/17 06:02:40;;;;;;;3.80;1.15;;;19.90;59.80;;;;;;5095357;28;20387;-73
2022/05/17 06:05:06;;;;;;;4.93;0.95;;;19.90;59.90;;;;;;5096885;27;20042;-74
2022/05/17 06:07:32;;;;;;;6.55;1.17;;;19.90;60.20;;;;;;5087699;28;20551;-73
2022/05/17 06:09:57;;;;;;;3.92;0.90;;;19.90;60.40;;;;;;5117754;27;20032;-72
2022/05/17 06:12:23;;;;;;;6.38;1.10;;;20.00;60.60;;;;;;5097499;27;20065;-74
2022/05/17 06:14:49;;;;;;;5.53;1.80;;;20.00;60.80;;;;;;5114875;27;21543;-73
2022/05/17 06:17:14;;;;;;;7.43;1.30;;;20.00;60.90;;;;;;5097660;27;20737;-72
2022/05/17 06:19:40;;;;;;;4.85;1.10;;;20.00;61.00;;;;;;5081405;28;20698;-72
2022/05/17 06:22:06;;;;;;;4.72;1.13;;;20.10;61.70;;;;;;5069186;28;20048;-72
2022/05/17 06:24:31;;;;;;;6.05;1.17;;;20.10;60.90;;;;;;5070515;28;20040;-71
2022/05/17 06:26:57;;;;;;;3.83;1.10;;;20.10;60.90;;;;;;5093228;28;20036;-72
2022/05/17 06:29:23;;;;;;;6.75;0.93;;;20.10;61.10;;;;;;5093697;28;20498;-72
2022/05/17 06:31:48;;;;;;;4.85;0.70;;;20.20;60.90;;;;;;5092735;27;20043;-72
2022/05/17 06:34:17;;;;;;;4.13;1.05;;;20.20;60.90;;;;;;5074529;27;20104;-72
2022/05/17 06:36:43;;;;;;;3.97;1.35;;;20.20;61.10;;;;;;5092231;27;20495;-72
2022/05/17 06:39:09;;;;;;;4.15;0.82;;;20.20;61.10;;;;;;5076932;28;20054;-74
2022/05/17 06:41:35;;;;;;;6.05;1.25;;;20.20;61.20;;;;;;5076626;28;20123;-74
2022/05/17 06:44:01;;;;;;;7.13;1.02;;;20.20;61.60;;;;;;5094718;27;20447;-75
2022/05/17 06:46:27;;;;;;;7.72;1.23;;;20.30;62.00;;;;;;5078093;28;20055;-73
2022/05/17 06:48:53;;;;;;;6.00;1.20;;;20.30;62.10;;;;;;5076923;28;20043;-71
2022/05/17 06:51:18;;;;;;;4.63;0.93;;;20.30;62.20;;;;;;5085401;28;20054;-72
2022/05/17 06:53:46;;;;;;;3.28;1.20;;;20.40;62.40;;;;;;5055937;28;20075;-73
2022/05/17 06:56:12;;;;;;;4.05;1.00;;;20.40;62.50;;;;;;5091556;28;20075;-71
2022/05/17 06:58:38;;;;;;;4.85;0.93;;;20.40;62.50;;;;;;5077288;28;20086;-72
2022/05/17 07:01:04;;;;;;;4.00;0.82;;;20.50;62.50;;;;;;5093964;27;20036;-71
2022/05/17 07:03:30;;;;;;;3.88;1.15;;;20.50;62.50;;;;;;5084289;28;20592;-72
2022/05/17 07:05:56;;;;;;;3.70;1.10;;;20.60;62.60;;;;;;5090491;27;20546;-71
2022/05/17 07:08:22;;;;;;;7.47;1.20;;;20.60;62.60;;;;;;5072801;28;20048;-71
2022/05/17 07:13:34;;;;;;;4.28;1.20;;;20.60;62.60;;;;;;5074236;28;20062;-74
2022/05/17 07:16:00;;;;;;;5.38;2.20;;;20.60;62.50;;;;;;5089981;28;20043;-71
2022/05/17 07:18:29;;;;;;;5.40;1.63;;;20.70;62.40;;;;;;5074593;28;20047;-70
2022/05/17 07:20:55;;;;;;;4.88;1.38;;;20.70;62.20;;;;;;5093219;28;20054;-71
2022/05/17 07:23:24;;;;;;;5.50;1.52;;;20.70;62.20;;;;;;5092024;28;20693;-73
2022/05/17 07:25:50;;;;;;;4.18;1.33;;;20.70;62.20;;;;;;5071022;28;20131;-73
2022/05/17 07:28:18;;;;;;;5.85;1.45;;;20.70;62.20;;;;;;5092206;28;20031;-72
2022/05/17 07:30:45;;;;;;;5.32;1.30;;;20.80;62.20;;;;;;5092058;28;20062;-71
2022/05/17 07:33:11;;;;;;;3.75;1.40;;;20.80;62.20;;;;;;5072432;28;20043;-70
2022/05/17 07:35:37;;;;;;;2.83;1.02;;;20.80;62.90;;;;;;5069762;28;20480;-73
2022/05/17 07:38:04;;;;;;;4.13;1.52;;;20.70;62.00;;;;;;5062482;28;20035;-72
2022/05/17 07:40:30;;;;;;;3.40;1.45;;;20.80;62.00;;;;;;5076501;28;20445;-75
2022/05/17 07:42:56;;;;;;;6.43;2.15;;;20.90;62.10;;;;;;5070098;28;20107;-70
2022/05/17 07:45:22;;;;;;;4.22;1.48;;;20.80;61.90;;;;;;5069580;27;20079;-68
2022/05/17 07:47:48;;;;;;;4.20;1.52;;;20.90;61.80;;;;;;5091163;28;20098;-70
2022/05/17 07:50:14;;;;;;;6.20;1.38;;;20.90;61.70;;;;;;5079521;28;20040;-69
2022/05/17 07:52:40;;;;;;;4.65;1.40;;;20.90;61.70;;;;;;5074678;28;20040;-72
2022/05/17 07:55:06;;;;;;;5.90;1.73;;;20.90;61.70;;;;;;5069763;28;20051;-69
2022/05/17 07:57:32;;;;;;;5.45;2.40;;;21.00;61.70;;;;;;5072400;28;20042;-72
2022/05/17 07:59:57;;;;;;;8.15;1.80;;;21.00;61.60;;;;;;5069226;28;20443;-72
2022/05/17 08:02:23;;;;;;;4.55;1.77;;;21.00;61.60;;;;;;5086910;28;20043;-70
2022/05/17 08:04:49;;;;;;;2.95;1.55;;;21.00;61.30;;;;;;5088836;28;20060;-70
2022/05/17 08:07:15;;;;;;;4.60;1.25;;;21.10;61.30;;;;;;5076745;28;20418;-76
2022/05/17 08:09:41;;;;;;;4.72;1.30;;;21.10;61.20;;;;;;5064481;28;20372;-71
2022/05/17 08:12:09;;;;;;;5.38;1.70;;;21.20;61.10;;;;;;5070116;28;20107;-70
2022/05/17 08:14:36;;;;;;;7.20;1.45;;;21.30;61.10;;;;;;5088446;28;20051;-67
2022/05/17 08:17:03;;;;;;;3.28;1.08;;;21.30;61.00;;;;;;5087471;27;20039;-68
2022/05/17 08:19:28;;;;;;;5.85;1.23;;;21.40;60.90;;;;;;5075762;28;20089;-68
2022/05/17 08:21:54;;;;;;;9.02;1.65;;;21.40;60.80;;;;;;5072812;28;20051;-68
2022/05/17 08:24:20;;;;;;;6.03;1.20;;;21.40;60.80;;;;;;5073109;28;20055;-69
2022/05/17 08:29:31;;;;;;;3.63;1.50;;;21.50;60.70;;;;;;5080176;28;20704;-69
2022/05/17 08:34:42;;;;;;;3.35;1.00;;;21.50;60.40;;;;;;5075824;28;20486;-71
2022/05/17 08:37:08;;;;;;;4.38;1.38;;;21.60;60.10;;;;;;5074324;28;20043;-70
2022/05/17 08:39:34;;;;;;;6.10;1.00;;;21.70;59.90;;;;;;5075183;28;20475;-71
2022/05/17 08:42:12;;;;;;;4.55;2.03;;;21.70;59.70;;;;;;5074808;28;20064;-71
2022/05/17 08:47:30;;;;;;;3.80;0.93;;;21.70;59.40;;;;;;5065368;28;20498;-72
2022/05/17 08:50:03;;;;;;;6.45;1.45;;;21.80;59.00;;;;;;5040525;28;20036;-73
2022/05/17 08:52:31;;;;;;;7.88;1.02;;;21.90;58.80;;;;;;5050780;28;20048;-68
2022/05/17 09:00:27;;;;;;;9.85;0.85;;;22.60;57.30;;;;;;5107379;27;20483;-67
2022/05/17 09:02:59;;;;;;;5.55;1.30;;;22.70;57.00;;;;;;5094147;28;20105;-68
2022/05/17 09:11:47;;;;;;;4.20;1.17;;;23.20;56.10;;;;;;5108356;27;20442;-68
2022/05/17 09:17:00;;;;;;;6.50;1.30;;;23.50;54.90;;;;;;5121443;27;1162252;-68
2022/05/17 09:19:27;;;;;;;7.22;1.15;;;23.50;54.70;;;;;;5131039;27;20099;-67
2022/05/17 09:21:58;;;;;;;6.50;0.90;;;23.60;54.40;;;;;;5135176;27;20049;-68
2022/05/17 09:24:29;;;;;;;6.13;0.98;;;23.70;54.30;;;;;;5136373;27;20042;-68
2022/05/17 09:27:05;;;;;;;5.55;1.25;;;23.80;54.10;;;;;;5135358;27;20042;-66
2022/05/17 09:32:25;;;;;;;6.53;1.52;;;23.90;54.00;;;;;;5126014;27;1183574;-69
2022/05/17 09:34:59;;;;;;;3.97;0.70;;;23.90;53.90;;;;;;5139971;27;20050;-69
2022/05/17 09:37:32;;;;;;;7.60;1.10;;;23.90;53.90;;;;;;5139481;27;20061;-69
2022/05/17 09:39:58;;;;;;;6.30;0.93;;;23.90;53.90;;;;;;5150060;27;20046;-69
2022/05/17 09:42:53;;;;;;;3.92;0.60;;;23.90;53.90;;;;;;5137772;27;20401;-69
2022/05/17 09:45:35;;;;;;;8.07;0.82;;;23.90;54.10;;;;;;5131739;27;20870;-68
2022/05/17 09:48:04;;;;;;;5.97;0.93;;;23.80;54.00;;;;;;5151509;27;20402;-66
2022/05/17 09:53:40;;;;;;;8.98;1.25;;;23.70;54.30;;;;;;5141119;27;20688;-70
2022/05/17 09:56:07;;;;;;;10.50;0.95;;;23.70;54.60;;;;;;5137131;27;20394;-70
2022/05/17 09:58:36;;;;;;;7.03;0.80;;;23.70;54.90;;;;;;5135685;27;20138;-68
2022/05/17 10:01:16;;;;;;;12.40;1.55;;;23.60;55.20;;;;;;5154445;27;20081;-66
2022/05/17 10:03:57;;;;;;;6.82;0.90;;;23.50;55.20;;;;;;5134761;27;20042;-67
2022/05/17 10:06:42;;;;;;;5.32;0.88;;;23.60;55.30;;;;;;5152819;27;20077;-66
2022/05/17 10:09:12;;;;;;;10.70;0.80;;;23.50;55.50;;;;;;5136375;27;20038;-66
2022/05/17 10:11:52;;;;;;;7.20;1.30;;;23.40;55.50;;;;;;5134777;27;20039;-67
2022/05/17 10:14:41;;;;;;;;;;;23.40;55.70;;;;;;5136355;27;20111;-67
2022/05/17 10:17:12;;;;;;;7.03;0.90;;;23.30;55.60;;;;;;5135565;27;19922;-68
2022/05/17 10:22:30;;;;;;;7.28;1.08;;;23.20;55.80;;;;;;5062838;28;20486;-68
2022/05/17 10:25:22;;;;;;;4.95;0.80;;;23.30;55.60;;;;;;5065776;28;20056;-68
2022/05/17 10:27:54;;;;;;;5.10;0.75;;;23.20;55.60;;;;;;5069943;28;20041;-70
2022/05/17 10:30:32;;;;;;;5.13;0.70;;;23.20;55.60;;;;;;5073938;28;20049;-69
2022/05/17 10:33:03;;;;;;;10.38;1.30;;;23.20;55.50;;;;;;5063145;28;20048;-69
2022/05/17 10:38:18;;;;;;;4.57;0.52;;;23.10;55.10;;;;;;5090917;27;20382;-70
2022/05/17 10:40:48;;;;;;;5.32;0.77;;;23.10;55.00;;;;;;5071603;28;20036;-66
2022/05/17 10:43:20;;;;;;;;;;;23.10;54.80;;;;;;5086206;28;20055;-67
2022/05/17 10:45:50;;;;;;;6.57;0.40;;;23.10;54.80;;;;;;5106757;28;20459;-67
2022/05/17 10:56:42;;;;;;;17.90;5.13;;;23.10;54.40;;;;;;5079037;27;21275;-68
2022/05/17 10:59:34;;;;;;;17.88;6.72;;;23.20;54.50;;;;;;5083883;28;20049;-69
2022/05/17 11:10:42;;;;;;;11.45;4.03;;;23.10;54.50;;;;;;5067864;28;20933;-68
2022/05/17 11:15:55;;;;;;;9.98;3.92;;;23.20;54.60;;;;;;5052311;27;20461;-71
2022/05/17 11:18:37;;;;;;;15.10;3.92;;;23.20;54.80;;;;;;5047605;28;20412;-70
2022/05/17 11:21:12;;;;;;;10.77;4.07;;;23.20;54.80;;;;;;5048719;28;20057;-70
2022/05/17 11:24:17;;;;;;;13.52;3.53;;;23.30;55.00;;;;;;5049721;28;20610;-72
2022/05/17 11:38:37;;;;;;;16.30;4.00;;;23.30;55.40;;;;;;5106853;27;21035;-66
2022/05/17 11:41:13;;;;;;;13.13;3.45;;;23.30;55.40;;;;;;5120345;27;20523;-67
2022/05/17 11:43:44;;;;;;;12.65;3.75;;;23.30;55.50;;;;;;5101423;27;20060;-69
2022/05/17 12:00:30;;;;;;;13.75;3.50;;;23.30;55.50;;;;;;5124430;27;1164500;-68
2022/05/17 12:02:59;;;;;;;12.85;3.75;;;23.40;55.50;;;;;;5141543;27;20521;-70
2022/05/17 12:08:42;;;;;;;13.25;3.67;;;23.40;55.60;;;;;;5107625;27;20471;-69
2022/05/17 12:14:12;;;;;;;8.43;2.95;;;23.30;55.90;;;;;;5119276;27;1159062;-70
2022/05/17 12:16:46;;;;;;;8.30;2.58;;;23.20;56.10;;;;;;5143723;27;20053;-73
2022/05/17 12:24:59;;;;;;;7.70;2.55;;;23.20;56.50;;;;;;5087262;27;20978;-73
2022/05/17 12:27:34;;;;;;;6.80;2.67;;;23.20;56.70;;;;;;5085682;28;20063;-71
2022/05/17 12:31:01;;;;;;;12.23;2.75;;;23.20;56.90;;;;;;5085419;28;20072;-71
2022/05/17 12:36:18;;;;;;;10.07;3.53;;;23.20;57.30;;;;;;5107722;27;1249995;-70
2022/05/17 12:44:23;;;;;;;7.50;1.88;;;23.30;57.50;;;;;;5078349;28;20054;-75
2022/05/17 12:46:54;;;;;;;7.38;1.67;;;23.40;57.60;;;;;;5068870;28;20048;-74
2022/05/17 12:49:26;;;;;;;11.43;1.20;;;23.40;58.10;;;;;;5083895;28;20047;-73
2022/05/17 12:51:54;;;;;;;9.98;1.80;;;23.50;58.10;;;;;;5108062;27;20038;-75
2022/05/17 12:54:23;;;;;;;6.13;1.38;;;23.50;57.80;;;;;;5064587;28;20170;-70
2022/05/17 12:56:48;;;;;;;14.15;1.38;;;23.60;58.50;;;;;;5072666;28;20751;-73
2022/05/17 12:59:24;;;;;;;9.82;1.25;;;23.60;57.80;;;;;;5070961;28;20056;-72
2022/05/17 13:01:56;;;;;;;7.43;0.65;;;23.60;57.80;;;;;;5075580;28;20052;-72
2022/05/17 13:04:32;;;;;;;7.38;1.42;;;23.60;57.80;;;;;;5072026;28;20033;-73
2022/05/17 13:07:16;;;;;;;10.52;1.15;;;23.60;57.40;;;;;;5086900;28;20301;-76
2022/05/17 13:10:04;;;;;;;9.90;0.88;;;23.60;57.20;;;;;;5089883;28;20075;-72
2022/05/17 13:12:33;;;;;;;6.65;0.57;;;23.60;57.30;;;;;;5077793;28;20032;-74
2022/05/17 13:15:02;;;;;;;7.55;0.80;;;23.60;57.10;;;;;;5078667;28;20032;-74
2022/05/17 13:17:34;;;;;;;5.10;0.82;;;23.70;57.10;;;;;;5078391;28;20037;-75
2022/05/17 13:20:10;;;;;;;3.45;0.55;;;23.70;56.70;;;;;;5079505;28;20036;-73
2022/05/17 13:22:41;;;;;;;6.97;1.05;;;23.70;56.50;;;;;;5078542;28;20504;-75
2022/05/17 13:25:07;;;;;;;14.30;1.17;;;23.70;56.50;;;;;;5078225;28;20051;-72
2022/05/17 13:27:42;;;;;;;6.47;0.70;;;23.70;56.50;;;;;;5081433;28;20523;-71
2022/05/17 13:33:09;;;;;;;6.55;0.70;;;23.80;56.40;;;;;;5081297;27;20417;-71
2022/05/17 13:35:37;;;;;;;6.97;0.50;;;23.80;56.20;;;;;;5073970;28;20052;-70
2022/05/17 13:40:58;;;;;;;3.67;0.50;;;23.80;55.90;;;;;;5150169;27;1157261;-71
2022/05/17 13:43:36;;;;;;;5.30;0.73;;;23.80;55.70;;;;;;5137210;27;20051;-70
2022/05/17 13:46:23;;;;;;;3.25;0.60;;;23.80;55.80;;;;;;5135391;27;20041;-70
2022/05/17 13:56:58;;;;;;;3.65;0.30;;;23.90;55.80;;;;;;5124573;27;20410;-71
2022/05/17 13:59:24;;;;;;;4.18;0.30;;;23.90;55.90;;;;;;5122810;28;20494;-66
2022/05/17 14:01:54;;;;;;;3.83;0.30;;;23.90;56.00;;;;;;5124873;27;20035;-66
2022/05/17 14:04:43;;;;;;;3.33;0.40;;;23.90;55.60;;;;;;5123424;28;20042;-67
2022/05/17 14:07:31;;;;;;;2.40;0.40;;;23.90;55.30;;;;;;5124360;28;20142;-67
2022/05/17 14:15:42;;;;;;;1.55;0.40;;;24.00;55.20;;;;;;5148487;27;1162623;-67
2022/05/17 14:18:13;;;;;;;2.85;0.73;;;24.10;55.20;;;;;;5166815;27;20038;-66
2022/05/17 14:20:40;;;;;;;2.03;0.50;;;24.10;54.90;;;;;;5148864;27;20105;-66
2022/05/17 14:23:06;;;;;;;1.67;0.20;;;24.10;54.70;;;;;;5144123;27;20551;-66
2022/05/17 14:25:31;;;;;;;2.15;0.30;;;24.10;54.50;;;;;;5127307;27;20196;-66
2022/05/17 14:27:58;;;;;;;0.80;0.30;;;24.10;54.40;;;;;;5144940;27;20119;-66
2022/05/17 14:30:26;;;;;;;2.60;0.20;;;24.10;54.30;;;;;;5147192;27;20118;-66
2022/05/17 14:32:52;;;;;;;0.68;0.28;;;24.10;54.20;;;;;;5129125;27;20042;-66
2022/05/17 14:35:22;;;;;;;1.20;0.20;;;24.10;54.10;;;;;;5137356;27;20129;-66
2022/05/17 14:37:48;;;;;;;1.08;0.35;;;24.10;54.10;;;;;;5160941;27;20049;-66
2022/05/17 14:40:14;;;;;;;1.75;0.63;;;24.10;54.10;;;;;;5159679;27;20034;-66
2022/05/17 14:42:40;;;;;;;1.50;0.30;;;24.10;54.00;;;;;;5153594;27;20122;-68
2022/05/17 14:45:07;;;;;;;0.60;0.13;;;24.10;54.00;;;;;;5140456;27;20587;-68
2022/05/17 14:47:34;;;;;;;0.77;0.20;;;24.20;54.00;;;;;;5159260;27;20022;-68
2022/05/17 14:50:00;;;;;;;1.92;0.20;;;24.10;53.90;;;;;;5150200;27;20043;-67
2022/05/17 14:52:28;;;;;;;2.33;0.55;;;24.10;54.00;;;;;;5150189;27;20042;-67
2022/05/17 14:54:54;;;;;;;2.35;0.20;;;24.20;54.20;;;;;;5150744;27;20485;-66
2022/05/17 14:57:23;;;;;;;0.85;0.20;;;24.20;54.40;;;;;;5150593;27;20162;-66
2022/05/17 14:59:48;;;;;;;0.88;0.20;;;24.20;54.70;;;;;;5169770;27;20117;-66
2022/05/17 15:02:17;;;;;;;0.70;0.20;;;24.20;54.50;;;;;;5144320;27;20026;-67
2022/05/17 15:04:44;;;;;;;1.33;0.30;;;24.20;54.40;;;;;;5152300;27;20035;-67
2022/05/17 15:12:37;;;;;;;1.57;0.20;;;24.10;54.30;;;;;;5152019;27;1176939;-68
2022/05/17 15:15:04;;;;;;;0.50;0.17;;;24.10;54.30;;;;;;5129539;27;20281;-68
2022/05/17 15:17:32;;;;;;;0.70;0.20;;;24.10;54.30;;;;;;5131582;27;20252;-68